createdAt,value
2022-12-08T00:01:29.099Z,3.45
2022-12-08T00:03:57.656Z,5.20
2022-12-08T00:06:55.791Z,2.95
2022-12-08T00:09:39.797Z,2.60
2022-12-08T00:12:16.445Z,1.10
2022-12-08T00:14:46.673Z,2.88
2022-12-08T00:17:16.213Z,0.85
2022-12-08T00:19:43.985Z,2.92
2022-12-08T00:22:15.117Z,2.83
2022-12-08T00:24:45.424Z,1.95
2022-12-08T00:27:15.936Z,4.07
2022-12-08T00:29:45.930Z,2.08
2022-12-08T00:32:12.921Z,3.20
2022-12-08T00:34:39.848Z,2.47
2022-12-08T00:37:06.687Z,2.20
2022-12-08T00:39:33.651Z,3.55
2022-12-08T00:42:12.306Z,2.03
2022-12-08T00:44:44.643Z,2.72
2022-12-08T00:47:13.214Z,2.78
2022-12-08T00:49:40.731Z,3.00
2022-12-08T00:52:08.164Z,2.20
2022-12-08T00:54:34.984Z,2.65
2022-12-08T00:57:01.969Z,2.53
2022-12-08T00:59:28.867Z,3.08
2022-12-08T01:01:55.804Z,4.47
2022-12-08T01:04:22.771Z,1.58
2022-12-08T01:06:50.449Z,3.35
2022-12-08T01:09:18.464Z,3.15
2022-12-08T01:11:46.534Z,2.60
2022-12-08T01:14:14.167Z,2.47
2022-12-08T01:16:41.935Z,3.90
2022-12-08T01:19:12.456Z,6.18
2022-12-08T01:21:40.363Z,0.40
2022-12-08T01:24:09.408Z,1.27
2022-12-08T01:26:36.299Z,3.08
2022-12-08T01:29:03.116Z,1.83
2022-12-08T01:31:29.896Z,1.88
2022-12-08T01:33:57.296Z,1.90
2022-12-08T01:36:28.119Z,3.25
2022-12-08T01:38:58.549Z,1.33
2022-12-08T01:41:29.391Z,1.17
2022-12-08T01:44:11.034Z,1.27
2022-12-08T01:46:47.231Z,1.88
2022-12-08T01:49:24.781Z,3.80
2022-12-08T01:52:11.516Z,2.60
2022-12-08T01:54:59.520Z,1.55
2022-12-08T01:57:35.350Z,0.98
2022-12-08T02:00:12.196Z,1.10
2022-12-08T02:03:03.503Z,3.55
2022-12-08T02:05:35.361Z,2.67
2022-12-08T02:08:11.613Z,2.50
2022-12-08T02:10:42.710Z,3.83
2022-12-08T02:13:14.846Z,3.83
2022-12-08T02:16:02.389Z,0.68
2022-12-08T02:19:30.660Z,1.60
2022-12-08T02:22:07.172Z,1.35
2022-12-08T02:24:56.876Z,1.50
2022-12-08T02:28:09.433Z,1.52
2022-12-08T02:30:53.816Z,2.20
2022-12-08T02:34:03.699Z,1.52
2022-12-08T02:36:48.789Z,1.42
2022-12-08T02:39:46.036Z,1.27
2022-12-08T02:42:37.706Z,4.95
2022-12-08T02:45:24.079Z,2.38
2022-12-08T02:47:52.504Z,1.60
2022-12-08T02:50:19.715Z,4.10
2022-12-08T02:52:48.159Z,2.92
2022-12-08T02:55:25.910Z,2.78
2022-12-08T02:58:22.726Z,3.08
2022-12-08T03:01:37.386Z,2.00
2022-12-08T03:04:42.765Z,0.93
2022-12-08T03:07:29.348Z,2.40
2022-12-08T03:10:21.832Z,3.10
2022-12-08T03:13:06.515Z,1.77
2022-12-08T03:15:36.058Z,4.35
2022-12-08T03:18:05.825Z,6.85
2022-12-08T03:20:34.561Z,2.28
2022-12-08T03:23:06.472Z,1.65
2022-12-08T03:25:37.910Z,1.13
2022-12-08T03:28:06.034Z,1.40
2022-12-08T03:30:37.381Z,1.70
2022-12-08T03:33:07.479Z,4.10
2022-12-08T03:35:37.814Z,3.05
2022-12-08T03:38:09.039Z,6.97
2022-12-08T03:40:35.971Z,4.30
2022-12-08T03:43:03.369Z,3.10
2022-12-08T03:45:30.801Z,4.73
2022-12-08T03:47:58.407Z,1.95
2022-12-08T03:50:25.446Z,2.42
2022-12-08T03:52:52.293Z,4.23
2022-12-08T03:55:19.803Z,1.30
2022-12-08T03:57:46.607Z,3.50
2022-12-08T04:00:17.166Z,2.28
2022-12-08T04:02:44.254Z,2.10
2022-12-08T04:05:11.148Z,1.90
2022-12-08T04:07:38.021Z,2.05
2022-12-08T04:10:06.146Z,2.95
2022-12-08T04:12:33.113Z,1.30
2022-12-08T04:15:00.016Z,1.60
2022-12-08T04:17:27.646Z,1.40
2022-12-08T04:19:54.475Z,2.20
2022-12-08T04:22:21.394Z,3.17
2022-12-08T04:24:48.375Z,1.52
2022-12-08T04:27:15.277Z,1.63
2022-12-08T04:29:42.093Z,1.77
2022-12-08T04:32:09.026Z,1.55
2022-12-08T04:34:35.889Z,1.58
2022-12-08T04:37:02.725Z,0.88
2022-12-08T04:39:29.580Z,2.92
2022-12-08T04:41:56.458Z,2.00
2022-12-08T04:44:23.280Z,1.70
2022-12-08T04:46:50.118Z,0.80
2022-12-08T04:49:17.000Z,1.73
2022-12-08T04:51:43.868Z,2.33
2022-12-08T04:54:10.734Z,1.75
2022-12-08T04:56:38.289Z,1.48
2022-12-08T04:59:05.130Z,2.90
2022-12-08T05:01:32.129Z,2.65
2022-12-08T05:03:59.151Z,2.63
2022-12-08T05:06:26.018Z,2.58
2022-12-08T05:08:52.824Z,1.40
2022-12-08T05:11:19.729Z,1.65
2022-12-08T05:13:46.961Z,1.70
2022-12-08T05:16:15.940Z,2.22
2022-12-08T05:18:43.274Z,1.77
2022-12-08T05:21:10.495Z,0.50
2022-12-08T05:23:37.430Z,0.50
2022-12-08T05:26:04.394Z,7.47
2022-12-08T05:28:46.858Z,3.05
2022-12-08T05:31:16.534Z,1.60
2022-12-08T05:33:45.426Z,2.28
2022-12-08T05:36:14.750Z,1.10
2022-12-08T05:38:42.222Z,1.05
2022-12-08T05:41:10.852Z,1.38
2022-12-08T05:43:37.697Z,1.15
2022-12-08T05:46:05.506Z,1.85
2022-12-08T05:48:32.776Z,1.15
2022-12-08T05:50:59.766Z,2.05
2022-12-08T05:53:26.869Z,0.65
2022-12-08T05:55:53.987Z,1.48
2022-12-08T05:58:23.041Z,2.83
2022-12-08T06:00:51.168Z,1.70
2022-12-08T06:03:19.644Z,3.65
2022-12-08T06:05:47.975Z,1.98
2022-12-08T06:08:14.978Z,0.93
2022-12-08T06:10:43.919Z,1.60
2022-12-08T06:13:10.910Z,3.63
2022-12-08T06:15:38.989Z,0.73
2022-12-08T06:18:06.944Z,2.92
2022-12-08T06:20:35.357Z,0.95
2022-12-08T06:23:03.419Z,1.50
2022-12-08T06:25:30.238Z,0.90
2022-12-08T06:27:57.071Z,0.80
2022-12-08T06:30:24.064Z,0.60
2022-12-08T06:32:50.892Z,1.52
2022-12-08T06:35:17.763Z,0.85
2022-12-08T06:37:48.169Z,3.80
2022-12-08T06:40:15.035Z,1.42
2022-12-08T06:42:44.559Z,2.05
2022-12-08T06:45:14.890Z,1.85
2022-12-08T06:47:42.368Z,0.80
2022-12-08T06:50:11.069Z,0.40
2022-12-08T06:52:46.754Z,1.17
2022-12-08T06:55:35.277Z,5.28
2022-12-08T06:58:03.481Z,1.13
2022-12-08T07:00:30.413Z,0.85
2022-12-08T07:02:57.361Z,2.22
2022-12-08T07:05:24.348Z,0.95
2022-12-08T07:07:51.293Z,1.10
2022-12-08T07:10:18.282Z,2.55
2022-12-08T07:12:45.755Z,0.30
2022-12-08T07:15:12.606Z,2.40
2022-12-08T07:17:39.494Z,1.52
2022-12-08T07:20:07.640Z,0.95
2022-12-08T07:22:35.206Z,0.30
2022-12-08T07:25:02.087Z,3.05
2022-12-08T07:27:29.041Z,3.28
2022-12-08T07:29:55.910Z,1.77
2022-12-08T07:32:22.831Z,0.40
2022-12-08T07:34:49.625Z,1.98
2022-12-08T07:37:16.409Z,1.27
2022-12-08T07:39:43.261Z,0.75
2022-12-08T07:42:10.097Z,4.13
2022-12-08T07:44:36.899Z,2.13
2022-12-08T07:47:03.818Z,1.75
2022-12-08T07:49:30.643Z,1.45
2022-12-08T07:51:57.450Z,1.55
2022-12-08T07:54:24.267Z,1.17
2022-12-08T07:56:51.168Z,2.83
2022-12-08T07:59:18.053Z,1.67
2022-12-08T08:01:45.700Z,1.80
2022-12-08T08:04:12.746Z,0.90
2022-12-08T08:06:39.640Z,1.98
2022-12-08T08:09:06.580Z,1.52
2022-12-08T08:11:33.464Z,1.70
2022-12-08T08:14:00.292Z,1.75
2022-12-08T08:16:28.473Z,1.20
2022-12-08T08:18:56.916Z,7.88
2022-12-08T08:24:10.645Z,1.58
2022-12-08T08:26:37.592Z,0.63
2022-12-08T08:29:04.419Z,1.42
2022-12-08T08:31:31.316Z,1.20
2022-12-08T08:33:58.216Z,2.63
2022-12-08T08:36:34.275Z,0.80
2022-12-08T08:39:01.139Z,0.85
2022-12-08T08:41:27.997Z,0.30
2022-12-08T08:43:55.211Z,1.80
2022-12-08T08:46:22.145Z,1.35
2022-12-08T08:48:49.019Z,2.80
2022-12-08T08:51:15.880Z,1.55
2022-12-08T08:53:43.419Z,2.00
2022-12-08T08:56:15.638Z,0.98
2022-12-08T08:58:42.561Z,1.08
2022-12-08T09:01:09.368Z,1.52
2022-12-08T09:03:36.367Z,1.63
2022-12-08T09:06:03.306Z,1.98
2022-12-08T09:08:30.290Z,2.10
2022-12-08T09:10:57.171Z,1.67
2022-12-08T09:13:24.074Z,1.30
2022-12-08T09:15:51.050Z,1.80
2022-12-08T09:18:18.233Z,3.15
2022-12-08T09:20:45.188Z,0.95
2022-12-08T09:23:12.017Z,1.30
2022-12-08T09:25:44.823Z,1.48
2022-12-08T09:28:12.986Z,0.77
2022-12-08T09:30:40.566Z,0.85
2022-12-08T09:33:07.433Z,4.35
2022-12-08T09:35:34.290Z,4.32
2022-12-08T09:38:01.168Z,3.22
2022-12-08T09:40:30.779Z,3.58
2022-12-08T09:43:33.205Z,4.43
2022-12-08T09:46:01.887Z,1.30
2022-12-08T09:48:41.363Z,0.82
2022-12-08T09:51:09.606Z,3.78
2022-12-08T09:53:45.990Z,1.17
2022-12-08T09:56:18.915Z,1.67
2022-12-08T09:59:09.136Z,2.17
2022-12-08T10:01:41.560Z,4.10
2022-12-08T10:04:24.713Z,5.45
2022-12-08T10:07:04.660Z,2.97
2022-12-08T10:09:40.391Z,11.27
2022-12-08T10:12:32.463Z,3.10
2022-12-08T10:15:36.007Z,1.40
2022-12-08T10:18:12.312Z,3.40
2022-12-08T10:20:44.068Z,3.67
2022-12-08T10:23:27.751Z,3.53
2022-12-08T10:26:01.909Z,2.47
2022-12-08T10:28:28.811Z,1.80
2022-12-08T10:30:55.850Z,3.50
2022-12-08T10:33:23.782Z,2.60
2022-12-08T10:35:56.516Z,3.70
2022-12-08T10:38:36.580Z,2.60
2022-12-08T10:41:09.487Z,5.13
2022-12-08T10:43:48.984Z,3.07
2022-12-08T10:46:17.581Z,2.67
2022-12-08T10:49:07.624Z,1.90
2022-12-08T10:51:34.347Z,0.70
2022-12-08T10:54:01.950Z,2.97
2022-12-08T10:56:32.573Z,1.63
2022-12-08T10:59:19.144Z,2.80
2022-12-08T11:01:49.316Z,1.23
2022-12-08T11:04:34.715Z,0.60
2022-12-08T11:07:03.128Z,1.67
2022-12-08T11:09:40.315Z,4.70
2022-12-08T11:12:16.126Z,2.70
2022-12-08T11:14:42.816Z,2.40
2022-12-08T11:17:15.122Z,1.20
2022-12-08T11:20:08.731Z,2.93
2022-12-08T11:22:40.826Z,11.70
2022-12-08T11:25:07.552Z,1.20
2022-12-08T11:27:37.378Z,1.20
2022-12-08T11:30:17.958Z,0.53
2022-12-08T11:32:53.278Z,1.80
2022-12-08T11:35:31.347Z,2.00
2022-12-08T11:38:20.418Z,1.93
2022-12-08T11:40:52.705Z,2.27
2022-12-08T11:43:50.356Z,2.40
2022-12-08T11:46:56.525Z,1.17
2022-12-08T11:49:36.423Z,2.63
2022-12-08T11:52:14.617Z,0.80
2022-12-08T11:54:59.770Z,0.33
2022-12-08T11:57:28.848Z,0.87
2022-12-08T11:59:58.294Z,3.13
2022-12-08T12:02:29.691Z,1.20
2022-12-08T12:05:08.991Z,0.30
2022-12-08T12:08:04.980Z,1.73
2022-12-08T12:10:41.346Z,2.03
2022-12-08T12:13:52.010Z,1.20
2022-12-08T12:16:49.852Z,2.50
2022-12-08T12:19:20.834Z,1.73
2022-12-08T12:21:56.071Z,2.07
2022-12-08T12:24:35.935Z,1.53
2022-12-08T12:27:15.183Z,1.07
2022-12-08T12:29:55.998Z,1.67
2022-12-08T12:32:24.814Z,1.73
2022-12-08T12:34:56.238Z,1.90
2022-12-08T12:37:43.497Z,0.80
2022-12-08T12:40:18.037Z,2.17
2022-12-08T12:43:09.718Z,1.53
2022-12-08T12:45:43.689Z,3.53
2022-12-08T12:48:19.931Z,0.53
2022-12-08T12:50:50.010Z,1.53
2022-12-08T12:53:16.721Z,1.70
2022-12-08T12:55:52.293Z,1.37
2022-12-08T12:58:28.353Z,5.30
2022-12-08T13:01:10.513Z,2.43
2022-12-08T13:03:41.359Z,1.67
2022-12-08T13:06:14.619Z,1.90
2022-12-08T13:08:52.706Z,1.10
2022-12-08T13:11:20.176Z,2.93
2022-12-08T13:14:04.877Z,2.03
2022-12-08T13:16:39.883Z,2.30
2022-12-08T13:19:16.093Z,2.00
2022-12-08T13:22:04.345Z,5.17
2022-12-08T13:24:34.928Z,1.77
2022-12-08T13:27:04.748Z,1.10
2022-12-08T13:29:37.304Z,2.50
2022-12-08T13:33:17.153Z,2.57
2022-12-08T13:35:54.978Z,2.40
2022-12-08T13:38:26.724Z,1.53
2022-12-08T13:40:55.901Z,1.40
2022-12-08T13:44:24.829Z,3.10
2022-12-08T13:58:35.464Z,1.20
2022-12-08T14:01:11.554Z,0.90
2022-12-08T14:06:58.619Z,0.50
2022-12-08T14:09:35.556Z,0.80
2022-12-08T14:12:17.735Z,0.93
2022-12-08T14:15:04.989Z,1.05
2022-12-08T14:17:33.017Z,0.70
2022-12-08T14:20:11.915Z,0.70
2022-12-08T14:22:41.084Z,1.25
2022-12-08T14:25:15.456Z,0.55
2022-12-08T14:27:42.752Z,0.40
2022-12-08T14:30:15.095Z,1.58
2022-12-08T14:32:53.737Z,1.52
2022-12-08T14:35:23.144Z,1.08
2022-12-08T14:37:58.498Z,1.08
2022-12-08T14:40:35.643Z,1.05
2022-12-08T14:43:07.911Z,1.15
2022-12-08T14:45:41.369Z,3.20
2022-12-08T14:48:36.264Z,2.13
2022-12-08T14:51:18.786Z,11.10
2022-12-08T14:54:02.238Z,2.72
2022-12-08T14:56:53.104Z,1.45
2022-12-08T14:59:26.390Z,2.60
2022-12-08T15:02:30.018Z,0.70
2022-12-08T15:05:11.272Z,1.00
2022-12-08T15:07:54.555Z,1.02
2022-12-08T15:10:30.756Z,1.95
2022-12-08T15:13:07.349Z,3.00
2022-12-08T15:15:56.757Z,3.33
2022-12-08T15:18:39.480Z,2.10
2022-12-08T15:21:09.736Z,0.32
2022-12-08T15:23:44.674Z,1.17
2022-12-08T15:26:26.656Z,5.78
2022-12-08T15:28:54.597Z,7.15
2022-12-08T15:31:21.750Z,1.88
2022-12-08T15:33:48.712Z,1.67
2022-12-08T15:36:15.605Z,0.77
2022-12-08T15:38:43.600Z,1.45
2022-12-08T15:41:14.942Z,1.25
2022-12-08T15:43:42.367Z,1.30
2022-12-08T15:46:09.284Z,2.25
2022-12-08T15:48:38.024Z,2.08
2022-12-08T15:51:05.038Z,1.70
2022-12-08T15:53:31.855Z,0.88
2022-12-08T15:58:55.720Z,3.53
2022-12-08T16:01:24.225Z,0.70
2022-12-08T16:09:39.493Z,3.45
2022-12-08T16:13:13.510Z,2.10
2022-12-08T16:15:50.182Z,1.25
2022-12-08T16:18:15.065Z,2.50
2022-12-08T16:23:45.947Z,1.88
2022-12-08T16:29:07.127Z,3.00
2022-12-08T16:31:34.035Z,4.95
2022-12-08T16:34:01.122Z,2.22
2022-12-08T16:36:27.933Z,2.28
2022-12-08T16:38:54.777Z,4.55
2022-12-08T16:41:39.791Z,0.90
2022-12-08T16:44:06.772Z,1.23
2022-12-08T16:46:34.743Z,3.10
2022-12-08T16:49:01.592Z,1.90
2022-12-08T16:51:28.491Z,2.15
2022-12-08T16:53:57.006Z,1.83
2022-12-08T16:56:28.949Z,3.03
2022-12-08T16:58:58.995Z,3.72
2022-12-08T17:01:25.980Z,3.25
2022-12-08T17:04:22.579Z,4.30
2022-12-08T17:06:40.367Z,7.80
2022-12-08T17:09:07.183Z,7.60
2022-12-08T17:11:40.754Z,2.22
2022-12-08T17:14:09.758Z,2.58
2022-12-08T17:16:36.628Z,2.33
2022-12-08T17:19:03.797Z,2.97
2022-12-08T17:21:30.639Z,2.10
2022-12-08T17:23:57.540Z,2.55
2022-12-08T17:26:24.654Z,3.75
2022-12-08T17:29:00.557Z,3.90
2022-12-08T17:31:30.382Z,5.35
2022-12-08T17:34:02.569Z,9.63
2022-12-08T17:36:29.611Z,3.72
2022-12-08T17:38:59.728Z,4.30
2022-12-08T17:41:26.756Z,2.63
2022-12-08T17:43:53.603Z,7.78
2022-12-08T17:46:21.761Z,3.15
2022-12-08T17:48:48.671Z,4.93
2022-12-08T17:51:16.082Z,3.87
2022-12-08T17:53:43.298Z,2.37
2022-12-08T17:56:17.844Z,2.17
2022-12-08T17:58:45.673Z,4.67
2022-12-08T18:01:14.633Z,2.67
2022-12-08T18:03:41.482Z,3.35
2022-12-08T18:06:11.196Z,5.75
2022-12-08T18:08:39.225Z,5.43
2022-12-08T18:11:15.010Z,2.47
2022-12-08T18:13:42.314Z,3.55
2022-12-08T18:16:09.297Z,3.45
2022-12-08T18:18:36.173Z,4.05
2022-12-08T18:21:03.090Z,4.20
2022-12-08T18:23:29.886Z,4.47
2022-12-08T18:25:56.802Z,6.40
2022-12-08T18:28:24.189Z,3.20
2022-12-08T18:30:51.237Z,4.72
2022-12-08T18:33:18.145Z,5.38
2022-12-08T18:35:44.997Z,2.95
2022-12-08T18:38:11.899Z,4.70
2022-12-08T18:40:39.124Z,1.17
2022-12-08T18:43:06.074Z,5.07
2022-12-08T18:45:33.730Z,5.00
2022-12-08T18:48:00.585Z,13.93
2022-12-08T18:50:27.441Z,19.17
2022-12-08T18:52:54.578Z,7.75
2022-12-08T18:55:21.400Z,7.10
2022-12-08T18:57:48.385Z,5.80
2022-12-08T19:00:18.112Z,3.22
2022-12-08T19:02:45.419Z,2.60
2022-12-08T19:05:13.878Z,3.72
2022-12-08T19:07:42.642Z,3.78
2022-12-08T19:10:10.633Z,4.80
2022-12-08T19:12:37.610Z,4.28
2022-12-08T19:15:05.597Z,6.53
2022-12-08T19:17:32.898Z,5.05
2022-12-08T19:19:59.887Z,9.93
2022-12-08T19:22:26.724Z,3.30
2022-12-08T19:24:53.557Z,4.80
2022-12-08T19:27:20.433Z,3.20
2022-12-08T19:29:47.432Z,7.88
2022-12-08T19:32:14.373Z,4.65
2022-12-08T19:34:41.383Z,4.50
2022-12-08T19:37:10.281Z,4.65
2022-12-08T19:39:55.564Z,5.20
2022-12-08T19:42:40.923Z,4.38
2022-12-08T19:45:16.339Z,4.15
2022-12-08T19:47:43.581Z,4.35
2022-12-08T19:50:31.502Z,3.70
2022-12-08T19:52:58.744Z,4.30
2022-12-08T19:55:25.932Z,5.68
2022-12-08T19:57:54.245Z,6.97
2022-12-08T20:00:21.663Z,4.35
2022-12-08T20:02:48.687Z,6.30
2022-12-08T20:05:16.029Z,23.50
2022-12-08T20:07:43.084Z,19.10
2022-12-08T20:10:25.280Z,4.50
2022-12-08T20:13:12.064Z,7.28
2022-12-08T20:15:39.005Z,4.30
2022-12-08T20:18:06.492Z,3.53
2022-12-08T20:20:33.446Z,4.03
2022-12-08T20:23:00.302Z,2.88
2022-12-08T20:25:27.182Z,7.18
2022-12-08T20:27:54.035Z,6.93
2022-12-08T20:30:20.999Z,3.47
2022-12-08T20:32:47.861Z,3.45
2022-12-08T20:35:15.735Z,5.53
2022-12-08T20:37:42.932Z,5.05
2022-12-08T20:40:10.209Z,3.40
2022-12-08T20:42:37.090Z,4.90
2022-12-08T20:45:07.176Z,4.17
2022-12-08T20:47:34.638Z,4.65
2022-12-08T20:50:05.083Z,5.57
2022-12-08T20:52:32.521Z,11.77
2022-12-08T20:54:59.416Z,10.05
2022-12-08T20:57:26.525Z,8.93
2022-12-08T20:59:53.408Z,4.72
2022-12-08T21:02:20.371Z,3.65
2022-12-08T21:04:47.815Z,4.30
2022-12-08T21:07:14.777Z,4.20
2022-12-08T21:09:41.867Z,4.65
2022-12-08T21:12:09.035Z,3.95
2022-12-08T21:14:36.245Z,2.88
2022-12-08T21:17:04.476Z,4.45
2022-12-08T21:19:31.576Z,4.20
2022-12-08T21:21:58.600Z,3.08
2022-12-08T21:24:28.908Z,6.10
2022-12-08T21:27:00.530Z,27.05
2022-12-08T21:29:27.442Z,23.75
2022-12-08T21:31:57.262Z,12.45
2022-12-08T21:34:25.473Z,6.15
2022-12-08T21:36:53.156Z,5.43
2022-12-08T21:39:20.447Z,6.85
2022-12-08T21:42:05.908Z,2.80
2022-12-08T21:44:35.390Z,5.05
2022-12-08T21:47:03.596Z,7.95
2022-12-08T21:49:30.530Z,5.10
2022-12-08T21:51:57.878Z,5.03
2022-12-08T21:54:24.993Z,2.40
2022-12-08T21:56:51.979Z,3.80
2022-12-08T21:59:19.783Z,4.55
2022-12-08T22:01:47.392Z,4.28
2022-12-08T22:04:18.996Z,4.38
2022-12-08T22:06:46.052Z,6.22
2022-12-08T22:09:15.213Z,3.63
2022-12-08T22:11:43.532Z,4.32
2022-12-08T22:14:14.391Z,4.50
2022-12-08T22:16:43.058Z,8.73
2022-12-08T22:19:10.363Z,5.47
2022-12-08T22:21:38.211Z,3.45
2022-12-08T22:24:05.762Z,4.22
2022-12-08T22:26:32.710Z,2.80
2022-12-08T22:29:00.125Z,4.75
2022-12-08T22:31:42.546Z,3.90
2022-12-08T22:34:09.922Z,4.47
2022-12-08T22:36:36.842Z,2.60
2022-12-08T22:39:04.699Z,2.90
2022-12-08T22:41:31.611Z,2.95
2022-12-08T22:43:58.434Z,2.85
2022-12-08T22:46:27.259Z,4.63
2022-12-08T22:48:54.801Z,5.43
2022-12-08T22:51:21.951Z,6.38
2022-12-08T22:53:48.967Z,4.40
2022-12-08T22:56:17.239Z,5.00
2022-12-08T22:58:44.485Z,9.07
2022-12-08T23:01:29.144Z,9.10
2022-12-08T23:03:56.999Z,9.98
2022-12-08T23:06:26.052Z,9.10
2022-12-08T23:08:53.414Z,9.73
2022-12-08T23:11:23.495Z,7.22
2022-12-08T23:13:50.352Z,6.43
2022-12-08T23:16:17.367Z,4.18
2022-12-08T23:18:46.510Z,4.20
2022-12-08T23:21:19.376Z,4.10
2022-12-08T23:23:47.258Z,4.30
2022-12-08T23:26:27.401Z,6.05
2022-12-08T23:28:55.663Z,3.97
2022-12-08T23:31:23.566Z,5.70
2022-12-08T23:33:51.552Z,6.53
2022-12-08T23:36:20.409Z,6.90
2022-12-08T23:38:48.977Z,3.75
2022-12-08T23:41:16.790Z,5.40
2022-12-08T23:43:46.363Z,4.43
2022-12-08T23:46:14.608Z,3.60
2022-12-08T23:48:41.683Z,5.75
2022-12-08T23:51:08.780Z,7.45
2022-12-08T23:53:36.107Z,7.10
2022-12-08T23:56:07.282Z,5.05
2022-12-08T23:58:34.973Z,6.95
